Aérodrome :
LOGIN :

S'inscrire | Disclaimer

   EN    FR    IT 

 










Légende :    VFR   VFR Marginal   IFR   IFR Intensif   IFR Très Intensif
Visi : 
Plafond : 
>= 8 km
>= 3000ft
5 à 8 km
1000 à 3000 ft
1500m à 5 km
500 à 1000 ft
800 à 1500m
200 à 500 ft
< 800m
< 200 ft
Symboles :   Orages  Brouillard  Fortes neiges  Fortes précipitations  Vent > 20 kt
SIGMETs :   Divers  Orages  Givrage  Turbulence  Onde Orograph.  Cendres Volcan.






- Altitude de l'aérodrome : 38 ft
- Code IATA : BOH


EGHH - Bournemouth

DERNIER METAR :
  • 271420Z 32016KT 290V350 9999 FEW032 SCT040 09/M00 Q1006

METARs EXPIRÉS :
  • 271350Z 32016KT 300V030 9999 FEW032 SCT040 09/01 Q1005
  • 271320Z 32020KT 280V350 9999 FEW030 SCT035 08/01 Q1005
  • 271250Z 33019KT 290V360 9999 SCT030 08/02 Q1004
  • 271220Z 32017KT 300V020 9999 SCT020 SCT028 07/02 Q1003
  • 271150Z 33017KT 310V020 9999 SCT017 BKN023 06/02 Q1003

TAF TAF EGHH
Valide du 27 à 15h jusqu'au 28 à 00h UTC


271400Z 2715/2724 33015G25KT 9999 SCT030
BECMG 2715/2717 33012KT
ATIS : +44 1202 364 151
Météo : +44 1202 364 158 (TAF)



MET'MAP, la Météo Aéronautique d'un coup d'oeil ! - Copyright ORBIFLY Décembre 2007 - Disclaimer

ORBIFLY MET'MAP TEAM :

Programmation & Développement : Alexandra Zaïnal
Sur une idée originale de : Baudouin d'Aumeries
Assistance à la programmation : Marc-Olivier Méhu
Soutien technique & logistique : Manuel Goepfert

Contact : metmap@orbifly.com




SOURCES & CREDITS :

   NOAA